Time;durP1;ratioP1;P1;durP2;ratioP2;P2;SDS_P1;SDS_P2;PMS_P1;PMS_P2;Temp;Humidity;BMP_temperature;BMP_pressure;BME280_temperature;BME280_humidity;BME280_pressure;Samples;Min_cycle;Max_cycle;Signal;HPM_P1;HPM_P2
2022/07/27 00:00:37;;;;;;;21.23;16.87;;;24.60;99.90;;;;;;5062043;28;20180;-91
2022/07/27 00:03:02;;;;;;;21.43;16.57;;;24.50;99.90;;;;;;5059761;28;20690;-93
2022/07/27 00:05:28;;;;;;;21.30;18.67;;;24.50;99.90;;;;;;5059515;28;20589;-92
2022/07/27 00:07:54;;;;;;;21.70;17.70;;;24.50;99.90;;;;;;5059424;28;20200;-93
2022/07/27 00:10:19;;;;;;;19.83;17.07;;;24.50;99.90;;;;;;5059467;28;20523;-93
2022/07/27 00:12:45;;;;;;;24.07;19.13;;;24.40;99.90;;;;;;5059354;28;20540;-93
2022/07/27 00:15:11;;;;;;;24.57;18.20;;;24.40;99.90;;;;;;5059739;28;20184;-92
2022/07/27 00:17:37;;;;;;;18.97;16.03;;;24.40;99.90;;;;;;5060916;28;20240;-91
2022/07/27 00:20:03;;;;;;;23.40;16.67;;;24.40;99.90;;;;;;5065638;28;20421;-93
2022/07/27 00:22:29;;;;;;;19.70;17.50;;;24.40;99.90;;;;;;5058615;28;20295;-92
2022/07/27 00:24:54;;;;;;;20.03;17.43;;;24.30;99.90;;;;;;5059008;28;20456;-93
2022/07/27 00:27:20;;;;;;;19.33;16.77;;;24.30;99.90;;;;;;5076987;28;20204;-93
2022/07/27 00:29:46;;;;;;;21.77;17.83;;;24.30;99.90;;;;;;5058855;28;20194;-91
2022/07/27 00:32:11;;;;;;;21.57;17.17;;;24.30;99.90;;;;;;5078219;28;20550;-93
2022/07/27 00:34:37;;;;;;;19.40;16.53;;;24.20;99.90;;;;;;5058857;28;20190;-93
2022/07/27 00:37:03;;;;;;;20.90;17.50;;;24.20;99.90;;;;;;5058766;28;20222;-93
2022/07/27 00:39:30;;;;;;;22.13;17.50;;;24.20;99.90;;;;;;5059218;28;20188;-93
2022/07/27 00:41:56;;;;;;;20.17;16.23;;;24.20;99.90;;;;;;5075524;28;20936;-92
2022/07/27 00:44:30;;;;;;;18.87;16.97;;;24.10;99.90;;;;;;5060404;28;20417;-91
2022/07/27 00:46:56;;;;;;;22.93;16.87;;;24.10;99.90;;;;;;5075094;28;20289;-93
2022/07/27 00:49:23;;;;;;;20.90;17.80;;;24.10;99.90;;;;;;5067458;28;20466;-93
2022/07/27 00:51:49;;;;;;;21.10;17.03;;;24.10;99.90;;;;;;5058264;28;20461;-92
2022/07/27 00:54:19;;;;;;;23.90;18.13;;;24.10;99.90;;;;;;5058509;28;20428;-93
2022/07/27 00:56:45;;;;;;;20.27;17.07;;;24.10;99.90;;;;;;5054341;28;21021;-93
2022/07/27 00:59:12;;;;;;;23.37;18.03;;;24.10;99.90;;;;;;5056311;28;20416;-93
2022/07/27 01:01:38;;;;;;;24.73;18.20;;;24.10;99.90;;;;;;5055446;28;20457;-93
2022/07/27 01:04:04;;;;;;;21.03;17.47;;;24.00;99.90;;;;;;5055801;28;20425;-92
2022/07/27 01:06:31;;;;;;;23.20;17.37;;;24.00;99.90;;;;;;5055484;28;20454;-93
2022/07/27 01:11:47;;;;;;;24.50;17.43;;;24.00;99.90;;;;;;5028411;28;20465;-93
2022/07/27 01:14:14;;;;;;;19.80;16.27;;;24.00;99.90;;;;;;5058692;28;20423;-91
2022/07/27 01:16:41;;;;;;;22.23;17.93;;;24.00;99.90;;;;;;5061135;28;20488;-93
2022/07/27 01:19:09;;;;;;;23.33;17.27;;;24.00;99.90;;;;;;5065865;28;20497;-92
2022/07/27 01:21:36;;;;;;;21.70;18.10;;;24.00;99.90;;;;;;5072810;28;20434;-92
2022/07/27 01:24:02;;;;;;;22.07;16.73;;;23.90;99.90;;;;;;5069214;28;20422;-92
2022/07/27 01:26:28;;;;;;;20.07;16.40;;;23.90;99.90;;;;;;5055086;28;21038;-92
2022/07/27 01:28:59;;;;;;;20.87;17.20;;;23.90;99.90;;;;;;5053993;28;20411;-93
2022/07/27 01:31:26;;;;;;;21.07;16.90;;;23.90;99.90;;;;;;5055245;28;20444;-93
2022/07/27 01:33:52;;;;;;;19.07;17.03;;;23.90;99.90;;;;;;5054153;28;20408;-92
2022/07/27 01:36:18;;;;;;;20.50;16.97;;;23.90;99.90;;;;;;5053964;28;20520;-92
2022/07/27 01:38:45;;;;;;;19.40;16.83;;;23.90;99.90;;;;;;5055366;28;20648;-92
2022/07/27 01:41:11;;;;;;;21.77;17.63;;;23.90;99.90;;;;;;5053969;28;20440;-92
2022/07/27 01:43:37;;;;;;;19.63;16.83;;;23.80;99.90;;;;;;5053797;28;20414;-93
2022/07/27 01:46:03;;;;;;;21.60;17.63;;;23.80;99.90;;;;;;5054931;28;20415;-93
2022/07/27 01:48:28;;;;;;;20.37;16.30;;;23.80;99.90;;;;;;5054229;28;20195;-92
2022/07/27 01:50:55;;;;;;;20.77;16.83;;;23.80;99.90;;;;;;5054249;28;20176;-92
2022/07/27 01:53:21;;;;;;;19.17;15.40;;;23.70;99.90;;;;;;5056175;28;20234;-93
2022/07/27 01:55:47;;;;;;;20.50;16.70;;;23.70;99.90;;;;;;5054310;28;20495;-92
2022/07/27 01:58:13;;;;;;;22.63;16.53;;;23.70;99.90;;;;;;5058180;28;20565;-93
2022/07/27 02:00:39;;;;;;;18.80;15.90;;;23.70;99.90;;;;;;5062285;28;20434;-92
2022/07/27 02:03:07;;;;;;;19.27;16.63;;;23.60;99.90;;;;;;5069858;28;20197;-93
2022/07/27 02:05:33;;;;;;;18.70;14.53;;;23.60;99.90;;;;;;5057294;28;20409;-92
2022/07/27 02:07:59;;;;;;;19.93;16.10;;;23.60;99.90;;;;;;5057901;28;20459;-93
2022/07/27 02:10:25;;;;;;;17.50;14.77;;;23.60;99.90;;;;;;5056851;28;20399;-92
2022/07/27 02:12:51;;;;;;;19.33;14.57;;;23.60;99.90;;;;;;5057203;28;20203;-92
2022/07/27 02:15:19;;;;;;;19.50;14.77;;;23.60;99.90;;;;;;5057173;28;20207;-92
2022/07/27 02:17:46;;;;;;;15.70;13.60;;;23.60;99.90;;;;;;5057361;28;20627;-93
2022/07/27 02:20:14;;;;;;;17.63;14.07;;;23.50;99.90;;;;;;5057895;28;20404;-93
2022/07/27 02:22:41;;;;;;;16.20;14.47;;;23.50;99.90;;;;;;5074892;28;20980;-93
2022/07/27 02:25:07;;;;;;;19.63;15.50;;;23.50;99.90;;;;;;5057527;28;20420;-93
2022/07/27 02:27:33;;;;;;;18.37;13.53;;;23.50;99.90;;;;;;5057338;28;20478;-93
2022/07/27 02:29:59;;;;;;;16.43;14.00;;;23.50;99.90;;;;;;5057613;28;20425;-91
2022/07/27 02:32:24;;;;;;;17.67;14.57;;;23.50;99.90;;;;;;5057280;28;20208;-93
2022/07/27 02:34:50;;;;;;;19.07;15.03;;;23.50;99.90;;;;;;5058949;28;20203;-91
2022/07/27 02:37:16;;;;;;;17.30;12.90;;;23.50;99.90;;;;;;5076095;28;20655;-91
2022/07/27 02:39:42;;;;;;;14.80;13.07;;;23.50;99.90;;;;;;5076336;28;20240;-92
2022/07/27 02:42:08;;;;;;;17.13;14.13;;;23.50;99.90;;;;;;5057752;28;20469;-93
2022/07/27 02:44:34;;;;;;;19.77;15.90;;;23.40;99.90;;;;;;5061844;28;20408;-93
2022/07/27 02:46:59;;;;;;;18.70;14.80;;;23.40;99.90;;;;;;5088583;28;20422;-93
2022/07/27 02:49:25;;;;;;;17.43;14.53;;;23.40;99.90;;;;;;5058924;28;20674;-92
2022/07/27 02:51:52;;;;;;;15.97;14.27;;;23.40;99.90;;;;;;5071499;28;20707;-93
2022/07/27 02:54:20;;;;;;;19.57;13.97;;;23.40;99.90;;;;;;5083457;28;20231;-92
2022/07/27 02:56:47;;;;;;;17.30;14.10;;;23.30;99.90;;;;;;5057589;28;21030;-93
2022/07/27 02:59:13;;;;;;;17.23;14.43;;;23.30;99.90;;;;;;5056947;28;20448;-92
2022/07/27 03:01:39;;;;;;;17.60;15.13;;;23.30;99.90;;;;;;5056228;28;20465;-93
2022/07/27 03:04:05;;;;;;;17.23;14.70;;;23.30;99.90;;;;;;5056945;28;20404;-92
2022/07/27 03:06:31;;;;;;;20.60;14.23;;;23.20;99.90;;;;;;5077913;28;20284;-93
2022/07/27 03:08:56;;;;;;;18.77;15.13;;;23.20;99.90;;;;;;5059962;28;20577;-92
2022/07/27 03:11:22;;;;;;;19.87;15.23;;;23.20;99.90;;;;;;5060503;28;20455;-92
2022/07/27 03:13:48;;;;;;;16.53;13.83;;;23.20;99.90;;;;;;5060995;28;20175;-91
2022/07/27 03:16:13;;;;;;;15.80;14.00;;;23.30;99.90;;;;;;5077943;28;20186;-93
2022/07/27 03:18:39;;;;;;;19.67;15.10;;;23.30;99.90;;;;;;5060699;28;20180;-93
2022/07/27 03:21:05;;;;;;;17.10;13.80;;;23.30;99.90;;;;;;5078625;28;20178;-93
2022/07/27 03:23:31;;;;;;;16.70;14.17;;;23.30;99.90;;;;;;5060454;28;20192;-93
2022/07/27 03:25:57;;;;;;;16.53;14.07;;;23.30;99.90;;;;;;5060203;28;20874;-92
2022/07/27 03:28:22;;;;;;;17.50;14.83;;;23.30;99.90;;;;;;5088790;28;20189;-91
2022/07/27 03:30:48;;;;;;;17.77;14.80;;;23.30;99.90;;;;;;5093278;28;20181;-93
2022/07/27 03:33:14;;;;;;;20.10;13.80;;;23.30;99.90;;;;;;5062251;28;20559;-93
2022/07/27 03:35:40;;;;;;;16.60;13.37;;;23.30;99.90;;;;;;5059397;28;20832;-94
2022/07/27 03:38:05;;;;;;;15.47;12.93;;;23.30;99.90;;;;;;5077288;28;20214;-92
2022/07/27 03:40:32;;;;;;;16.03;13.80;;;23.30;99.90;;;;;;5078108;28;20170;-93
2022/07/27 03:42:58;;;;;;;19.93;15.03;;;23.30;99.90;;;;;;5060575;28;20208;-92
2022/07/27 03:45:24;;;;;;;21.40;13.20;;;23.30;99.90;;;;;;5059560;28;20777;-92
2022/07/27 03:47:50;;;;;;;70.43;37.07;;;23.40;99.90;;;;;;5077981;28;20280;-92
2022/07/27 03:50:16;;;;;;;35.40;22.70;;;23.40;99.90;;;;;;5059773;28;20449;-92
2022/07/27 03:52:42;;;;;;;26.10;16.50;;;23.40;99.90;;;;;;5059838;28;20466;-93
2022/07/27 03:55:08;;;;;;;18.47;14.30;;;23.40;99.90;;;;;;5061384;28;20415;-92
2022/07/27 03:57:33;;;;;;;18.43;13.27;;;23.30;99.90;;;;;;5060206;28;20246;-93
2022/07/27 03:59:59;;;;;;;21.33;13.63;;;23.30;99.90;;;;;;5060519;28;20643;-93
2022/07/27 04:02:25;;;;;;;16.93;13.60;;;23.30;99.90;;;;;;5060126;28;20210;-93
2022/07/27 04:04:50;;;;;;;16.33;13.07;;;23.30;99.90;;;;;;5061638;28;20173;-92
2022/07/27 04:07:16;;;;;;;17.80;13.10;;;23.30;99.90;;;;;;5065641;28;20243;-91
2022/07/27 04:09:42;;;;;;;16.80;13.80;;;23.30;99.90;;;;;;5061053;28;20188;-91
2022/07/27 04:12:07;;;;;;;14.77;12.87;;;23.30;99.90;;;;;;5059541;28;20221;-93
2022/07/27 04:14:33;;;;;;;15.43;13.73;;;23.30;99.90;;;;;;5081308;28;20211;-92
2022/07/27 04:16:59;;;;;;;24.50;12.73;;;23.30;99.90;;;;;;5058477;28;20716;-93
2022/07/27 04:19:24;;;;;;;19.07;13.50;;;23.30;99.90;;;;;;5058839;28;20246;-91
2022/07/27 04:21:50;;;;;;;18.83;14.27;;;23.30;99.90;;;;;;5059236;28;20568;-93
2022/07/27 04:24:16;;;;;;;14.20;12.20;;;23.30;99.90;;;;;;5058520;28;20177;-93
2022/07/27 04:26:41;;;;;;;14.77;12.63;;;23.30;99.90;;;;;;5076469;28;20609;-93
2022/07/27 04:29:07;;;;;;;17.70;14.03;;;23.30;99.90;;;;;;5056410;28;20182;-93
2022/07/27 04:31:33;;;;;;;17.40;13.23;;;23.30;99.90;;;;;;5058259;28;20253;-93
2022/07/27 04:33:58;;;;;;;16.27;12.53;;;23.30;99.90;;;;;;5051850;28;20547;-92
2022/07/27 04:36:24;;;;;;;17.37;12.67;;;23.30;99.90;;;;;;5039562;28;20203;-93
2022/07/27 04:38:50;;;;;;;18.40;13.80;;;23.30;99.90;;;;;;5039371;28;20176;-93
2022/07/27 04:41:16;;;;;;;15.13;12.20;;;23.30;99.90;;;;;;5038795;28;20533;-93
2022/07/27 04:43:41;;;;;;;14.77;11.90;;;23.30;99.90;;;;;;5038860;28;20180;-92
2022/07/27 04:46:07;;;;;;;13.83;11.17;;;23.30;99.90;;;;;;5039119;28;20909;-93
2022/07/27 04:48:34;;;;;;;17.30;12.40;;;23.30;99.90;;;;;;5059351;28;20170;-91
2022/07/27 04:51:01;;;;;;;13.37;11.80;;;23.30;99.90;;;;;;5066255;28;20608;-92
2022/07/27 04:53:26;;;;;;;15.20;12.00;;;23.30;99.90;;;;;;5037935;28;20408;-92
2022/07/27 04:55:52;;;;;;;234.90;115.60;;;23.30;99.90;;;;;;5055828;28;20422;-92
2022/07/27 04:58:18;;;;;;;30.57;17.93;;;23.30;99.90;;;;;;5038767;28;20218;-92
2022/07/27 05:00:44;;;;;;;17.10;12.17;;;23.40;99.90;;;;;;5038841;28;20426;-93
2022/07/27 05:03:10;;;;;;;14.07;11.27;;;23.40;99.90;;;;;;5038905;28;20203;-93
2022/07/27 05:05:35;;;;;;;11.70;10.00;;;23.40;99.90;;;;;;5038323;28;20265;-92
2022/07/27 05:08:02;;;;;;;12.43;10.27;;;23.40;99.90;;;;;;5038074;28;20204;-93
2022/07/27 05:10:27;;;;;;;10.60;9.00;;;23.50;99.90;;;;;;5038455;28;20182;-92
2022/07/27 05:12:53;;;;;;;10.43;9.43;;;23.50;99.90;;;;;;5056854;28;20958;-93
2022/07/27 05:15:19;;;;;;;10.50;9.30;;;23.60;99.90;;;;;;5038832;28;20274;-92
2022/07/27 05:17:45;;;;;;;9.97;8.50;;;23.60;99.90;;;;;;5039024;28;20228;-92
2022/07/27 05:20:12;;;;;;;46.90;34.70;;;23.60;99.90;;;;;;5055188;28;20397;-93
2022/07/27 05:22:37;;;;;;;19.63;15.93;;;23.60;99.90;;;;;;5042097;28;20448;-94
2022/07/27 05:25:03;;;;;;;26.00;18.20;;;23.70;99.90;;;;;;5057801;28;20960;-94
2022/07/27 05:27:29;;;;;;;11.10;9.40;;;23.80;99.90;;;;;;5074205;28;20207;-92
2022/07/27 05:29:55;;;;;;;12.37;10.90;;;23.90;99.90;;;;;;5053755;28;20427;-93
2022/07/27 05:32:21;;;;;;;12.20;9.10;;;24.00;99.90;;;;;;5054058;28;20207;-94
2022/07/27 05:34:46;;;;;;;9.67;8.67;;;24.10;99.90;;;;;;5075395;28;20713;-94
2022/07/27 05:37:12;;;;;;;8.87;7.97;;;24.20;99.90;;;;;;5074337;28;20228;-92
2022/07/27 05:39:41;;;;;;;10.07;8.50;;;24.30;99.90;;;;;;5046940;28;20424;-92
2022/07/27 05:42:07;;;;;;;13.10;8.47;;;24.40;99.90;;;;;;5054260;28;20208;-94
2022/07/27 05:44:33;;;;;;;9.40;8.10;;;24.50;99.90;;;;;;5054035;28;20494;-92
2022/07/27 05:46:59;;;;;;;9.03;7.40;;;24.60;99.90;;;;;;5072349;28;20504;-94
2022/07/27 05:49:25;;;;;;;11.40;8.10;;;24.70;99.90;;;;;;5072984;28;20425;-92
2022/07/27 05:51:51;;;;;;;9.30;7.37;;;24.80;99.90;;;;;;5075767;28;20240;-92
2022/07/27 05:54:17;;;;;;;9.10;6.77;;;25.00;99.90;;;;;;5055893;28;20210;-92
2022/07/27 05:56:43;;;;;;;8.60;6.60;;;25.10;99.90;;;;;;5073690;28;20582;-94
2022/07/27 05:59:09;;;;;;;8.27;6.60;;;25.20;99.90;;;;;;5059736;28;20429;-93
2022/07/27 06:01:36;;;;;;;8.13;6.17;;;25.30;99.90;;;;;;5063837;28;20540;-92
2022/07/27 06:04:01;;;;;;;7.70;6.20;;;25.40;99.90;;;;;;5054726;28;20525;-93
2022/07/27 06:09:12;;;;;;;7.53;5.97;;;25.60;99.90;;;;;;5075605;28;20499;-94
2022/07/27 06:11:38;;;;;;;6.30;5.33;;;25.70;99.90;;;;;;5070366;28;20460;-94
2022/07/27 06:14:04;;;;;;;6.33;5.10;;;25.80;99.90;;;;;;5054060;28;20192;-93
2022/07/27 06:16:29;;;;;;;10.50;6.17;;;25.90;99.90;;;;;;5072538;28;20551;-92
2022/07/27 06:18:55;;;;;;;6.40;5.03;;;26.00;99.90;;;;;;5037890;28;20197;-91
2022/07/27 06:21:24;;;;;;;5.80;5.10;;;26.10;99.90;;;;;;5068529;28;20201;-93
2022/07/27 06:23:53;;;;;;;6.40;5.50;;;26.20;99.90;;;;;;5054856;28;20181;-93
2022/07/27 06:26:19;;;;;;;10.47;5.47;;;26.30;99.90;;;;;;5051474;28;20485;-91
2022/07/27 06:28:45;;;;;;;523.80;317.70;;;26.40;99.90;;;;;;5049110;28;21002;-93
2022/07/27 06:31:11;;;;;;;11.60;9.10;;;26.40;99.90;;;;;;5050366;28;20977;-92
2022/07/27 06:33:37;;;;;;;9.87;5.60;;;26.50;99.90;;;;;;5044438;28;20453;-92
2022/07/27 06:36:04;;;;;;;13.83;5.20;;;26.60;99.90;;;;;;5055074;28;20466;-91
2022/07/27 06:38:30;;;;;;;6.27;4.90;;;26.60;99.90;;;;;;5052732;28;20469;-93
2022/07/27 06:40:57;;;;;;;10.70;4.63;;;26.70;99.90;;;;;;5056486;28;20445;-93
2022/07/27 06:43:25;;;;;;;7.40;5.80;;;26.80;99.90;;;;;;5056802;28;20426;-92
2022/07/27 06:45:53;;;;;;;11.87;4.57;;;26.80;99.90;;;;;;5073277;28;20433;-90
2022/07/27 06:48:20;;;;;;;4.47;4.07;;;26.90;99.70;;;;;;5052028;28;20453;-91
2022/07/27 06:50:46;;;;;;;7.40;5.53;;;27.00;99.10;;;;;;5054582;28;20477;-92
2022/07/27 06:53:12;;;;;;;8.10;4.60;;;27.10;99.20;;;;;;5069098;28;20440;-93
2022/07/27 06:55:38;;;;;;;7.20;4.83;;;27.10;99.10;;;;;;5056727;28;20440;-93
2022/07/27 06:58:03;;;;;;;6.37;4.87;;;27.20;99.00;;;;;;5071075;28;20228;-95
2022/07/27 07:00:29;;;;;;;6.30;4.33;;;27.30;99.00;;;;;;5071318;28;20650;-93
2022/07/27 07:03:03;;;;;;;5.85;4.90;;;27.40;98.60;;;;;;5064407;28;20852;-93
2022/07/27 07:05:29;;;;;;;5.10;4.60;;;27.50;98.10;;;;;;5049403;28;20213;-92
2022/07/27 07:07:56;;;;;;;5.13;4.00;;;27.60;97.40;;;;;;5057521;28;20439;-93
2022/07/27 07:10:23;;;;;;;6.27;4.77;;;27.60;97.70;;;;;;5048107;28;20424;-91
2022/07/27 07:12:50;;;;;;;7.60;4.50;;;27.70;97.60;;;;;;5063283;28;20501;-92
2022/07/27 07:15:16;;;;;;;5.70;5.10;;;27.70;97.10;;;;;;5054939;28;20517;-92
2022/07/27 07:17:42;;;;;;;4.93;4.47;;;27.70;97.00;;;;;;5078745;28;20632;-91
2022/07/27 07:20:08;;;;;;;9.13;5.50;;;27.70;96.60;;;;;;5050736;28;20544;-91
2022/07/27 07:22:34;;;;;;;7.27;4.60;;;27.70;96.40;;;;;;5054049;28;20280;-94
2022/07/27 07:25:01;;;;;;;4.80;4.27;;;27.70;95.80;;;;;;5051952;28;20592;-93
2022/07/27 07:27:36;;;;;;;4.63;4.20;;;27.70;95.50;;;;;;5070455;28;20498;-94
2022/07/27 07:30:02;;;;;;;4.10;3.70;;;27.70;94.90;;;;;;5051119;28;20185;-92
2022/07/27 07:32:28;;;;;;;4.50;3.60;;;27.60;94.90;;;;;;5066919;28;20530;-94
2022/07/27 07:34:54;;;;;;;3.90;3.50;;;27.70;95.20;;;;;;5053651;28;20581;-94
2022/07/27 07:37:23;;;;;;;5.10;3.60;;;27.70;95.00;;;;;;5078509;28;20231;-95
2022/07/27 07:39:48;;;;;;;5.93;3.90;;;27.80;95.00;;;;;;5052887;28;20239;-95
2022/07/27 07:42:14;;;;;;;2.93;2.60;;;27.90;94.30;;;;;;5045086;28;20447;-94
2022/07/27 07:44:40;;;;;;;6.00;4.00;;;27.90;92.00;;;;;;5058013;28;20187;-95
2022/07/27 07:47:06;;;;;;;3.10;2.77;;;28.00;92.20;;;;;;5051367;28;20213;-94
2022/07/27 07:49:32;;;;;;;3.20;2.90;;;28.10;91.90;;;;;;5048983;28;20660;-95
2022/07/27 07:51:58;;;;;;;3.73;2.90;;;28.10;92.20;;;;;;5055123;28;20783;-94
2022/07/27 07:54:24;;;;;;;3.00;2.70;;;28.20;92.10;;;;;;5054386;28;20526;-95
2022/07/27 07:56:49;;;;;;;3.20;2.40;;;28.30;91.80;;;;;;5055290;28;20521;-93
2022/07/27 07:59:15;;;;;;;3.73;2.40;;;28.40;91.60;;;;;;5080379;28;20178;-92
2022/07/27 08:01:41;;;;;;;3.27;2.97;;;28.50;91.20;;;;;;5060163;28;20228;-93
2022/07/27 08:04:07;;;;;;;2.90;2.60;;;28.70;91.90;;;;;;5052181;28;20187;-94
2022/07/27 08:06:32;;;;;;;3.20;2.90;;;28.70;91.70;;;;;;5065872;28;20642;-94
2022/07/27 08:08:58;;;;;;;3.50;2.73;;;28.80;91.90;;;;;;5057067;28;20655;-92
2022/07/27 08:11:24;;;;;;;3.20;3.00;;;28.90;91.30;;;;;;5073849;28;20692;-92
2022/07/27 08:13:50;;;;;;;3.93;2.90;;;29.00;92.00;;;;;;5052484;28;20661;-93
2022/07/27 08:16:16;;;;;;;4.10;3.70;;;29.10;91.80;;;;;;5044091;28;20977;-92
2022/07/27 08:18:42;;;;;;;2.83;2.63;;;29.10;90.70;;;;;;5055056;28;20280;-92
2022/07/27 08:21:10;;;;;;;3.03;2.70;;;29.20;90.60;;;;;;5056639;28;20487;-93
2022/07/27 08:23:36;;;;;;;6.10;2.60;;;29.30;90.30;;;;;;5043316;28;20184;-91
2022/07/27 08:26:02;;;;;;;4.07;3.50;;;29.40;91.90;;;;;;5033763;28;20469;-93
2022/07/27 08:28:29;;;;;;;4.27;3.07;;;29.40;90.50;;;;;;5066040;28;20212;-93
2022/07/27 08:31:01;;;;;;;5.73;3.17;;;29.50;91.10;;;;;;5074295;28;20189;-95
2022/07/27 08:33:26;;;;;;;2.77;2.57;;;29.60;91.60;;;;;;5074175;28;20514;-95
2022/07/27 08:35:52;;;;;;;3.50;3.20;;;29.60;90.80;;;;;;5058246;28;20487;-96
2022/07/27 08:38:18;;;;;;;3.30;3.00;;;29.70;90.10;;;;;;5064276;28;20246;-92
2022/07/27 08:40:45;;;;;;;3.43;3.13;;;29.80;90.60;;;;;;5055830;28;20190;-93
2022/07/27 08:43:18;;;;;;;3.60;3.30;;;29.90;90.90;;;;;;5051439;28;20748;-93
2022/07/27 08:45:46;;;;;;;2.93;2.60;;;29.90;89.70;;;;;;5055643;28;20499;-94
2022/07/27 08:48:12;;;;;;;3.90;3.30;;;30.00;89.20;;;;;;5067507;28;20501;-94
2022/07/27 08:50:40;;;;;;;3.10;2.80;;;30.10;88.20;;;;;;5044552;28;20598;-95
2022/07/27 08:53:11;;;;;;;3.20;2.97;;;30.20;86.80;;;;;;5047928;28;20459;-95
2022/07/27 08:55:40;;;;;;;4.30;3.90;;;30.20;87.20;;;;;;5040414;28;20438;-94
2022/07/27 08:58:07;;;;;;;3.60;3.30;;;30.30;87.70;;;;;;5056382;28;20481;-95
2022/07/27 09:00:37;;;;;;;3.40;3.00;;;30.30;86.60;;;;;;5054295;28;20461;-94
2022/07/27 09:03:03;;;;;;;3.23;2.93;;;30.40;86.50;;;;;;5045648;28;20465;-93
2022/07/27 09:05:29;;;;;;;3.63;3.33;;;30.50;86.70;;;;;;5049403;28;20429;-94
2022/07/27 09:08:11;;;;;;;5.40;3.40;;;30.50;86.40;;;;;;5059829;28;20453;-94
2022/07/27 09:10:37;;;;;;;4.10;3.70;;;30.70;86.40;;;;;;5055860;28;20438;-94
2022/07/27 09:13:16;;;;;;;3.90;3.20;;;30.80;86.00;;;;;;5045073;28;20465;-95
2022/07/27 09:15:47;;;;;;;10.30;3.53;;;30.90;85.10;;;;;;5053523;28;20180;-95
2022/07/27 09:18:32;;;;;;;3.43;3.13;;;30.90;84.10;;;;;;5052174;28;21001;-95
2022/07/27 09:21:20;;;;;;;3.70;3.40;;;31.00;83.90;;;;;;5049114;28;20446;-93
2022/07/27 09:23:49;;;;;;;4.10;3.70;;;31.00;85.00;;;;;;5044941;28;20444;-93
2022/07/27 09:26:20;;;;;;;3.80;3.40;;;31.00;86.30;;;;;;5053989;28;20808;-93
2022/07/27 09:28:50;;;;;;;3.70;3.30;;;31.10;85.60;;;;;;5069620;28;20450;-93
2022/07/27 09:31:16;;;;;;;4.10;3.57;;;31.10;87.80;;;;;;5045012;28;20453;-93
2022/07/27 09:33:44;;;;;;;4.60;4.20;;;31.00;87.00;;;;;;5053215;28;20950;-93
2022/07/27 09:36:11;;;;;;;3.87;3.40;;;31.10;87.30;;;;;;5052174;28;20638;-92
2022/07/27 09:38:37;;;;;;;4.57;3.10;;;31.10;87.10;;;;;;5051137;28;20474;-95
2022/07/27 09:41:06;;;;;;;3.27;2.97;;;31.20;85.40;;;;;;5048569;28;20513;-94
2022/07/27 09:43:45;;;;;;;3.80;3.50;;;31.20;86.60;;;;;;5053466;28;20495;-92
2022/07/27 09:46:11;;;;;;;2.90;2.70;;;31.30;86.90;;;;;;5055904;28;20958;-95
2022/07/27 09:48:37;;;;;;;4.53;3.33;;;31.30;87.00;;;;;;5046112;28;20487;-93
2022/07/27 09:51:05;;;;;;;3.47;3.17;;;31.30;83.60;;;;;;5056226;28;20177;-92
2022/07/27 09:53:32;;;;;;;4.43;2.63;;;31.30;84.90;;;;;;5054288;28;20185;-93
2022/07/27 09:56:09;;;;;;;4.13;3.30;;;31.30;83.20;;;;;;5062746;28;20449;-93
2022/07/27 09:58:41;;;;;;;4.03;3.40;;;31.30;85.90;;;;;;5049449;28;20541;-92
2022/07/27 10:01:09;;;;;;;3.13;2.93;;;31.30;86.20;;;;;;5054152;28;20438;-93
2022/07/27 10:03:35;;;;;;;3.83;3.17;;;31.20;86.60;;;;;;5050222;28;20425;-93
2022/07/27 10:06:04;;;;;;;4.30;3.17;;;31.10;86.80;;;;;;5056048;28;20446;-93
2022/07/27 10:08:34;;;;;;;3.97;3.00;;;31.10;85.30;;;;;;5056269;28;20438;-93
2022/07/27 10:11:00;;;;;;;3.80;3.43;;;31.20;84.50;;;;;;5079009;28;20536;-93
2022/07/27 10:13:25;;;;;;;5.00;2.80;;;31.20;84.50;;;;;;5056291;28;20903;-92
2022/07/27 10:15:52;;;;;;;4.17;2.93;;;31.40;83.00;;;;;;5076622;28;20185;-93
2022/07/27 10:18:31;;;;;;;3.43;2.77;;;31.50;81.20;;;;;;5072232;28;20487;-93
2022/07/27 10:21:02;;;;;;;2.53;2.33;;;31.60;78.40;;;;;;5053355;28;20453;-94
2022/07/27 10:23:29;;;;;;;2.77;2.57;;;31.60;77.80;;;;;;5047233;28;20425;-93
2022/07/27 10:26:20;;;;;;;3.30;3.10;;;31.70;78.60;;;;;;5054893;28;20428;-93
2022/07/27 10:28:54;;;;;;;3.23;2.30;;;31.70;80.00;;;;;;5058409;28;20437;-93
2022/07/27 10:31:27;;;;;;;3.00;2.80;;;31.50;81.70;;;;;;5045961;28;20460;-94
2022/07/27 10:33:55;;;;;;;2.80;2.20;;;31.60;80.40;;;;;;5056800;28;20989;-94
2022/07/27 10:36:33;;;;;;;2.47;2.27;;;31.60;80.00;;;;;;5057360;28;20461;-95
2022/07/27 10:39:03;;;;;;;2.63;2.43;;;31.60;76.60;;;;;;5049476;28;21018;-93
2022/07/27 10:41:34;;;;;;;2.80;2.47;;;31.60;75.10;;;;;;5068175;28;20461;-93
2022/07/27 10:44:21;;;;;;;4.10;2.47;;;31.60;76.30;;;;;;5072542;28;20765;-92
2022/07/27 10:46:58;;;;;;;2.33;2.13;;;31.50;77.50;;;;;;5052719;28;20469;-94
2022/07/27 10:49:33;;;;;;;3.00;2.63;;;31.50;75.60;;;;;;5043151;28;20434;-94
2022/07/27 10:52:00;;;;;;;2.80;2.60;;;31.50;77.10;;;;;;5051100;28;20479;-94
2022/07/27 10:54:37;;;;;;;4.17;3.00;;;31.40;78.60;;;;;;5069456;28;20508;-94
2022/07/27 10:57:05;;;;;;;3.17;2.87;;;31.30;78.70;;;;;;5066985;28;20497;-94
2022/07/27 10:59:37;;;;;;;3.13;2.83;;;31.30;78.70;;;;;;5072873;28;20462;-93
2022/07/27 11:02:05;;;;;;;3.47;2.77;;;31.20;75.10;;;;;;5069818;28;20457;-94
2022/07/27 11:04:32;;;;;;;2.50;2.30;;;31.20;75.70;;;;;;5045562;28;21018;-94
2022/07/27 11:06:59;;;;;;;4.00;2.90;;;31.20;77.50;;;;;;5049058;28;20545;-93
2022/07/27 11:09:39;;;;;;;2.60;2.40;;;31.10;77.50;;;;;;5054507;28;20427;-93
2022/07/27 11:12:07;;;;;;;2.80;2.60;;;31.10;79.50;;;;;;5075731;28;20514;-93
2022/07/27 11:14:53;;;;;;;2.80;2.50;;;31.10;76.60;;;;;;5061708;28;20429;-94
2022/07/27 11:17:21;;;;;;;2.83;2.60;;;31.00;78.80;;;;;;5047775;28;20481;-93
2022/07/27 11:19:55;;;;;;;5.53;3.10;;;31.00;81.10;;;;;;5058117;28;20430;-92
2022/07/27 11:22:47;;;;;;;2.43;2.23;;;30.90;80.40;;;;;;5050770;28;20449;-93
2022/07/27 11:25:13;;;;;;;3.83;2.77;;;30.90;79.20;;;;;;5049163;28;20437;-93
2022/07/27 11:27:50;;;;;;;2.37;2.23;;;30.90;74.40;;;;;;5055809;28;20553;-92
2022/07/27 11:30:24;;;;;;;2.67;2.47;;;30.90;77.70;;;;;;5057604;28;20417;-93
2022/07/27 11:32:50;;;;;;;3.13;2.83;;;30.80;81.60;;;;;;5053753;28;20453;-93
2022/07/27 11:35:16;;;;;;;3.63;2.70;;;30.80;80.90;;;;;;5075995;28;20423;-92
2022/07/27 11:37:57;;;;;;;2.63;2.43;;;30.70;82.50;;;;;;5073519;28;20219;-93
2022/07/27 11:40:23;;;;;;;3.30;3.00;;;30.70;79.80;;;;;;5046187;28;20429;-93
2022/07/27 11:42:49;;;;;;;4.07;3.17;;;30.60;81.50;;;;;;5042679;28;20469;-92
2022/07/27 11:45:38;;;;;;;3.43;2.43;;;30.60;82.60;;;;;;5058546;28;20413;-93
2022/07/27 11:48:09;;;;;;;2.93;2.70;;;30.60;80.70;;;;;;5059011;28;20449;-94
2022/07/27 11:50:35;;;;;;;4.40;2.53;;;30.60;76.20;;;;;;5061139;28;20450;-93
2022/07/27 11:53:01;;;;;;;2.40;2.20;;;30.60;79.70;;;;;;5067416;28;20446;-93
2022/07/27 11:55:27;;;;;;;3.03;2.83;;;30.60;80.70;;;;;;5056866;28;20567;-93
2022/07/27 11:58:00;;;;;;;3.60;2.70;;;30.50;82.70;;;;;;5055686;28;20254;-93
2022/07/27 12:00:39;;;;;;;2.90;2.37;;;30.50;80.60;;;;;;5057306;28;20181;-92
2022/07/27 12:03:05;;;;;;;2.90;2.70;;;30.50;76.60;;;;;;5060293;28;20452;-92
2022/07/27 12:05:30;;;;;;;3.07;2.70;;;30.60;79.50;;;;;;5061104;28;20439;-90
2022/07/27 12:07:56;;;;;;;2.90;2.60;;;30.60;78.80;;;;;;5062602;28;20220;-90
2022/07/27 12:10:22;;;;;;;2.50;2.30;;;30.60;80.50;;;;;;5058389;28;20196;-92
2022/07/27 12:12:48;;;;;;;2.90;2.63;;;30.50;82.60;;;;;;5074285;28;20282;-92
2022/07/27 12:15:16;;;;;;;2.97;2.70;;;30.50;81.90;;;;;;5054544;28;20433;-91
2022/07/27 12:17:42;;;;;;;3.13;2.93;;;30.50;79.60;;;;;;5069307;28;21056;-92
2022/07/27 12:20:16;;;;;;;2.70;2.50;;;30.50;82.80;;;;;;5050176;28;20464;-91
2022/07/27 12:22:45;;;;;;;5.10;2.87;;;30.60;78.10;;;;;;5052773;28;20457;-93
2022/07/27 12:25:17;;;;;;;2.60;2.40;;;30.60;78.70;;;;;;5057030;28;20511;-93
2022/07/27 12:28:06;;;;;;;2.70;2.20;;;30.60;79.80;;;;;;5056516;28;20456;-94
2022/07/27 12:30:35;;;;;;;4.53;2.57;;;30.70;77.50;;;;;;5048342;28;20449;-93
2022/07/27 12:33:04;;;;;;;2.53;2.30;;;30.60;80.30;;;;;;5047249;28;20458;-93
2022/07/27 12:35:32;;;;;;;6.00;2.90;;;30.70;82.00;;;;;;5049676;28;20429;-92
2022/07/27 12:38:04;;;;;;;2.30;2.07;;;30.70;78.80;;;;;;5052717;28;20523;-92
2022/07/27 12:40:33;;;;;;;4.30;3.00;;;30.70;72.00;;;;;;5048180;28;20500;-92
2022/07/27 12:43:02;;;;;;;2.77;2.53;;;30.80;72.50;;;;;;5054467;28;20818;-92
2022/07/27 12:45:31;;;;;;;6.33;2.97;;;30.80;74.70;;;;;;5074771;28;20437;-93